sensor_id;sensor_type;location;lat;lon;timestamp;P1;durP1;ratioP1;P2;durP2;ratioP2
21301;SDS011;10810;48.270;9.996;2023-04-03T00:01:13;9.17;;;3.90;;
21301;SDS011;10810;48.270;9.996;2023-04-03T00:03:41;7.20;;;3.17;;
21301;SDS011;10810;48.270;9.996;2023-04-03T00:06:11;8.53;;;3.40;;
21301;SDS011;10810;48.270;9.996;2023-04-03T00:08:39;8.63;;;3.40;;
21301;SDS011;10810;48.270;9.996;2023-04-03T00:11:13;8.07;;;3.20;;
21301;SDS011;10810;48.270;9.996;2023-04-03T00:13:41;8.67;;;3.00;;
21301;SDS011;10810;48.270;9.996;2023-04-03T00:16:12;8.53;;;3.47;;
21301;SDS011;10810;48.270;9.996;2023-04-03T00:18:46;10.07;;;3.93;;
21301;SDS011;10810;48.270;9.996;2023-04-03T00:21:13;7.60;;;3.30;;
21301;SDS011;10810;48.270;9.996;2023-04-03T00:23:42;10.17;;;3.73;;
21301;SDS011;10810;48.270;9.996;2023-04-03T00:26:09;8.00;;;3.17;;
21301;SDS011;10810;48.270;9.996;2023-04-03T00:28:36;7.60;;;3.40;;
21301;SDS011;10810;48.270;9.996;2023-04-03T00:31:04;7.60;;;3.37;;
21301;SDS011;10810;48.270;9.996;2023-04-03T00:33:31;7.63;;;3.27;;
21301;SDS011;10810;48.270;9.996;2023-04-03T00:35:58;8.60;;;3.53;;
21301;SDS011;10810;48.270;9.996;2023-04-03T00:38:25;8.47;;;3.23;;
21301;SDS011;10810;48.270;9.996;2023-04-03T00:40:56;6.70;;;3.20;;
21301;SDS011;10810;48.270;9.996;2023-04-03T00:43:24;6.13;;;2.93;;
21301;SDS011;10810;48.270;9.996;2023-04-03T00:45:54;8.80;;;3.27;;
21301;SDS011;10810;48.270;9.996;2023-04-03T00:48:26;7.93;;;3.30;;
21301;SDS011;10810;48.270;9.996;2023-04-03T00:50:57;9.87;;;3.60;;
21301;SDS011;10810;48.270;9.996;2023-04-03T00:53:25;6.57;;;3.30;;
21301;SDS011;10810;48.270;9.996;2023-04-03T00:56:02;8.00;;;3.37;;
21301;SDS011;10810;48.270;9.996;2023-04-03T00:58:37;6.87;;;2.93;;
21301;SDS011;10810;48.270;9.996;2023-04-03T01:01:08;7.03;;;3.30;;
21301;SDS011;10810;48.270;9.996;2023-04-03T01:03:44;6.63;;;2.60;;
21301;SDS011;10810;48.270;9.996;2023-04-03T01:06:11;7.00;;;2.90;;
21301;SDS011;10810;48.270;9.996;2023-04-03T01:08:41;9.73;;;3.30;;
21301;SDS011;10810;48.270;9.996;2023-04-03T01:11:11;6.10;;;2.50;;
21301;SDS011;10810;48.270;9.996;2023-04-03T01:13:39;6.20;;;3.10;;
21301;SDS011;10810;48.270;9.996;2023-04-03T01:16:06;8.13;;;2.80;;
21301;SDS011;10810;48.270;9.996;2023-04-03T01:18:34;8.47;;;2.97;;
21301;SDS011;10810;48.270;9.996;2023-04-03T01:21:11;8.03;;;3.20;;
21301;SDS011;10810;48.270;9.996;2023-04-03T01:24:00;6.37;;;2.87;;
21301;SDS011;10810;48.270;9.996;2023-04-03T01:26:38;7.33;;;2.90;;
21301;SDS011;10810;48.270;9.996;2023-04-03T01:29:06;7.13;;;2.70;;
21301;SDS011;10810;48.270;9.996;2023-04-03T01:31:43;5.27;;;2.40;;
21301;SDS011;10810;48.270;9.996;2023-04-03T01:34:12;9.40;;;3.27;;
21301;SDS011;10810;48.270;9.996;2023-04-03T01:36:39;6.83;;;3.30;;
21301;SDS011;10810;48.270;9.996;2023-04-03T01:39:07;5.77;;;2.60;;
21301;SDS011;10810;48.270;9.996;2023-04-03T01:41:34;9.17;;;3.37;;
21301;SDS011;10810;48.270;9.996;2023-04-03T01:44:01;6.30;;;3.00;;
21301;SDS011;10810;48.270;9.996;2023-04-03T01:46:29;7.10;;;3.00;;
21301;SDS011;10810;48.270;9.996;2023-04-03T01:48:57;8.20;;;2.97;;
21301;SDS011;10810;48.270;9.996;2023-04-03T01:51:25;6.27;;;2.53;;
21301;SDS011;10810;48.270;9.996;2023-04-03T01:53:52;6.27;;;2.80;;
21301;SDS011;10810;48.270;9.996;2023-04-03T01:56:23;6.97;;;3.00;;
21301;SDS011;10810;48.270;9.996;2023-04-03T01:58:51;7.77;;;3.03;;
21301;SDS011;10810;48.270;9.996;2023-04-03T02:01:18;7.33;;;2.60;;
21301;SDS011;10810;48.270;9.996;2023-04-03T02:03:46;6.90;;;2.50;;
21301;SDS011;10810;48.270;9.996;2023-04-03T02:06:14;6.67;;;2.33;;
21301;SDS011;10810;48.270;9.996;2023-04-03T02:08:41;6.40;;;3.00;;
21301;SDS011;10810;48.270;9.996;2023-04-03T02:11:08;6.07;;;2.40;;
21301;SDS011;10810;48.270;9.996;2023-04-03T02:13:37;4.33;;;2.60;;
21301;SDS011;10810;48.270;9.996;2023-04-03T02:16:08;4.90;;;2.27;;
21301;SDS011;10810;48.270;9.996;2023-04-03T02:18:37;6.17;;;2.03;;
21301;SDS011;10810;48.270;9.996;2023-04-03T02:21:05;5.00;;;2.30;;
21301;SDS011;10810;48.270;9.996;2023-04-03T02:23:33;5.47;;;2.40;;
21301;SDS011;10810;48.270;9.996;2023-04-03T02:26:04;7.00;;;2.37;;
21301;SDS011;10810;48.270;9.996;2023-04-03T02:28:41;4.80;;;2.20;;
21301;SDS011;10810;48.270;9.996;2023-04-03T02:31:17;5.27;;;2.33;;
21301;SDS011;10810;48.270;9.996;2023-04-03T02:33:52;4.23;;;1.87;;
21301;SDS011;10810;48.270;9.996;2023-04-03T02:36:21;4.27;;;2.00;;
21301;SDS011;10810;48.270;9.996;2023-04-03T02:38:50;3.70;;;1.80;;
21301;SDS011;10810;48.270;9.996;2023-04-03T02:41:19;4.20;;;2.30;;
21301;SDS011;10810;48.270;9.996;2023-04-03T02:43:47;5.07;;;2.23;;
21301;SDS011;10810;48.270;9.996;2023-04-03T02:46:14;6.97;;;2.63;;
21301;SDS011;10810;48.270;9.996;2023-04-03T02:48:41;5.60;;;2.53;;
21301;SDS011;10810;48.270;9.996;2023-04-03T02:51:08;5.67;;;2.40;;
21301;SDS011;10810;48.270;9.996;2023-04-03T02:53:35;5.17;;;2.37;;
21301;SDS011;10810;48.270;9.996;2023-04-03T02:56:05;7.60;;;2.70;;
21301;SDS011;10810;48.270;9.996;2023-04-03T02:58:32;4.77;;;2.53;;
21301;SDS011;10810;48.270;9.996;2023-04-03T03:01:00;5.97;;;2.70;;
21301;SDS011;10810;48.270;9.996;2023-04-03T03:03:29;8.07;;;2.57;;
21301;SDS011;10810;48.270;9.996;2023-04-03T03:06:03;6.53;;;2.80;;
21301;SDS011;10810;48.270;9.996;2023-04-03T03:08:30;6.67;;;2.70;;
21301;SDS011;10810;48.270;9.996;2023-04-03T03:10:59;5.30;;;2.67;;
21301;SDS011;10810;48.270;9.996;2023-04-03T03:13:30;4.67;;;2.43;;
21301;SDS011;10810;48.270;9.996;2023-04-03T03:15:57;5.27;;;2.50;;
21301;SDS011;10810;48.270;9.996;2023-04-03T03:18:31;7.07;;;2.83;;
21301;SDS011;10810;48.270;9.996;2023-04-03T03:20:59;5.57;;;2.83;;
21301;SDS011;10810;48.270;9.996;2023-04-03T03:23:27;6.40;;;2.80;;
21301;SDS011;10810;48.270;9.996;2023-04-03T03:26:01;7.87;;;2.90;;
21301;SDS011;10810;48.270;9.996;2023-04-03T03:28:38;7.50;;;2.60;;
21301;SDS011;10810;48.270;9.996;2023-04-03T03:31:06;7.57;;;2.97;;
21301;SDS011;10810;48.270;9.996;2023-04-03T03:33:35;3.10;;;1.97;;
21301;SDS011;10810;48.270;9.996;2023-04-03T03:36:02;5.63;;;2.67;;
21301;SDS011;10810;48.270;9.996;2023-04-03T03:38:30;7.67;;;2.80;;
21301;SDS011;10810;48.270;9.996;2023-04-03T03:40:59;4.90;;;2.40;;
21301;SDS011;10810;48.270;9.996;2023-04-03T03:43:27;7.80;;;3.13;;
21301;SDS011;10810;48.270;9.996;2023-04-03T03:46:00;7.07;;;2.23;;
21301;SDS011;10810;48.270;9.996;2023-04-03T03:48:27;5.57;;;2.20;;
21301;SDS011;10810;48.270;9.996;2023-04-03T03:50:54;4.20;;;2.10;;
21301;SDS011;10810;48.270;9.996;2023-04-03T03:53:21;5.87;;;2.60;;
21301;SDS011;10810;48.270;9.996;2023-04-03T03:55:50;6.10;;;2.20;;
21301;SDS011;10810;48.270;9.996;2023-04-03T03:58:17;3.60;;;2.13;;
21301;SDS011;10810;48.270;9.996;2023-04-03T04:00:56;5.97;;;2.70;;
21301;SDS011;10810;48.270;9.996;2023-04-03T04:03:26;4.33;;;2.03;;
21301;SDS011;10810;48.270;9.996;2023-04-03T04:05:59;4.67;;;2.17;;
21301;SDS011;10810;48.270;9.996;2023-04-03T04:08:28;5.57;;;2.50;;
21301;SDS011;10810;48.270;9.996;2023-04-03T04:10:55;7.43;;;2.37;;
21301;SDS011;10810;48.270;9.996;2023-04-03T04:13:23;4.63;;;2.40;;
21301;SDS011;10810;48.270;9.996;2023-04-03T04:15:50;4.27;;;2.03;;
21301;SDS011;10810;48.270;9.996;2023-04-03T04:18:20;3.50;;;1.87;;
21301;SDS011;10810;48.270;9.996;2023-04-03T04:20:55;7.13;;;2.40;;
21301;SDS011;10810;48.270;9.996;2023-04-03T04:23:22;5.77;;;2.47;;
21301;SDS011;10810;48.270;9.996;2023-04-03T04:25:49;3.93;;;2.03;;
21301;SDS011;10810;48.270;9.996;2023-04-03T04:28:17;4.27;;;2.10;;
21301;SDS011;10810;48.270;9.996;2023-04-03T04:30:45;4.00;;;2.07;;
21301;SDS011;10810;48.270;9.996;2023-04-03T04:33:14;6.23;;;2.03;;
21301;SDS011;10810;48.270;9.996;2023-04-03T04:35:48;3.47;;;1.83;;
21301;SDS011;10810;48.270;9.996;2023-04-03T04:38:22;5.10;;;2.20;;
21301;SDS011;10810;48.270;9.996;2023-04-03T04:40:51;5.17;;;1.77;;
21301;SDS011;10810;48.270;9.996;2023-04-03T04:43:21;4.37;;;1.73;;
21301;SDS011;10810;48.270;9.996;2023-04-03T04:45:48;4.53;;;1.83;;
21301;SDS011;10810;48.270;9.996;2023-04-03T04:48:15;5.43;;;1.87;;
21301;SDS011;10810;48.270;9.996;2023-04-03T04:50:41;4.67;;;1.50;;
21301;SDS011;10810;48.270;9.996;2023-04-03T04:53:10;3.30;;;1.73;;
21301;SDS011;10810;48.270;9.996;2023-04-03T04:55:37;4.67;;;2.10;;
21301;SDS011;10810;48.270;9.996;2023-04-03T04:58:04;5.97;;;2.00;;
21301;SDS011;10810;48.270;9.996;2023-04-03T05:00:31;4.10;;;1.70;;
21301;SDS011;10810;48.270;9.996;2023-04-03T05:02:58;5.10;;;2.00;;
21301;SDS011;10810;48.270;9.996;2023-04-03T05:05:25;5.97;;;2.07;;
21301;SDS011;10810;48.270;9.996;2023-04-03T05:08:02;4.37;;;1.77;;
21301;SDS011;10810;48.270;9.996;2023-04-03T05:10:31;4.23;;;1.80;;
21301;SDS011;10810;48.270;9.996;2023-04-03T05:12:58;4.73;;;1.60;;
21301;SDS011;10810;48.270;9.996;2023-04-03T05:15:25;3.13;;;1.67;;
21301;SDS011;10810;48.270;9.996;2023-04-03T05:17:53;4.07;;;1.67;;
21301;SDS011;10810;48.270;9.996;2023-04-03T05:20:20;2.80;;;1.47;;
21301;SDS011;10810;48.270;9.996;2023-04-03T05:22:48;4.63;;;1.80;;
21301;SDS011;10810;48.270;9.996;2023-04-03T05:25:16;4.27;;;1.77;;
21301;SDS011;10810;48.270;9.996;2023-04-03T05:27:44;4.67;;;1.90;;
21301;SDS011;10810;48.270;9.996;2023-04-03T05:30:11;2.87;;;1.50;;
21301;SDS011;10810;48.270;9.996;2023-04-03T05:32:39;3.50;;;2.10;;
21301;SDS011;10810;48.270;9.996;2023-04-03T05:35:06;5.33;;;1.80;;
21301;SDS011;10810;48.270;9.996;2023-04-03T05:37:34;3.40;;;1.37;;
21301;SDS011;10810;48.270;9.996;2023-04-03T05:40:02;4.50;;;1.73;;
21301;SDS011;10810;48.270;9.996;2023-04-03T05:42:29;5.07;;;2.07;;
21301;SDS011;10810;48.270;9.996;2023-04-03T05:44:58;4.23;;;2.03;;
21301;SDS011;10810;48.270;9.996;2023-04-03T05:47:25;6.30;;;1.90;;
21301;SDS011;10810;48.270;9.996;2023-04-03T05:49:52;3.37;;;1.80;;
21301;SDS011;10810;48.270;9.996;2023-04-03T05:52:20;6.00;;;2.03;;
21301;SDS011;10810;48.270;9.996;2023-04-03T05:54:52;4.30;;;1.87;;
21301;SDS011;10810;48.270;9.996;2023-04-03T05:57:20;4.83;;;1.70;;
21301;SDS011;10810;48.270;9.996;2023-04-03T05:59:47;3.73;;;2.00;;
21301;SDS011;10810;48.270;9.996;2023-04-03T06:02:16;7.83;;;1.80;;
21301;SDS011;10810;48.270;9.996;2023-04-03T06:04:45;2.97;;;1.73;;
21301;SDS011;10810;48.270;9.996;2023-04-03T06:07:13;6.23;;;2.03;;
21301;SDS011;10810;48.270;9.996;2023-04-03T06:09:42;4.90;;;1.93;;
21301;SDS011;10810;48.270;9.996;2023-04-03T06:12:09;3.80;;;1.87;;
21301;SDS011;10810;48.270;9.996;2023-04-03T06:14:37;4.20;;;2.00;;
21301;SDS011;10810;48.270;9.996;2023-04-03T06:17:04;3.53;;;1.80;;
21301;SDS011;10810;48.270;9.996;2023-04-03T06:19:32;9.00;;;2.10;;
21301;SDS011;10810;48.270;9.996;2023-04-03T06:22:00;5.77;;;1.73;;
21301;SDS011;10810;48.270;9.996;2023-04-03T06:24:28;5.47;;;2.23;;
21301;SDS011;10810;48.270;9.996;2023-04-03T06:26:56;2.97;;;1.53;;
21301;SDS011;10810;48.270;9.996;2023-04-03T06:29:24;3.93;;;1.93;;
21301;SDS011;10810;48.270;9.996;2023-04-03T06:31:51;3.93;;;2.00;;
21301;SDS011;10810;48.270;9.996;2023-04-03T06:34:18;3.90;;;1.93;;
21301;SDS011;10810;48.270;9.996;2023-04-03T06:36:46;5.00;;;1.97;;
21301;SDS011;10810;48.270;9.996;2023-04-03T06:39:16;5.17;;;2.00;;
21301;SDS011;10810;48.270;9.996;2023-04-03T06:41:44;6.37;;;2.40;;
21301;SDS011;10810;48.270;9.996;2023-04-03T06:44:11;5.83;;;2.40;;
21301;SDS011;10810;48.270;9.996;2023-04-03T06:46:40;7.40;;;2.80;;
21301;SDS011;10810;48.270;9.996;2023-04-03T06:49:08;5.70;;;2.13;;
21301;SDS011;10810;48.270;9.996;2023-04-03T06:51:36;3.70;;;2.40;;
21301;SDS011;10810;48.270;9.996;2023-04-03T06:54:05;5.17;;;2.10;;
21301;SDS011;10810;48.270;9.996;2023-04-03T06:56:33;5.30;;;2.27;;
21301;SDS011;10810;48.270;9.996;2023-04-03T06:59:00;4.60;;;2.20;;
21301;SDS011;10810;48.270;9.996;2023-04-03T07:01:28;5.27;;;2.50;;
21301;SDS011;10810;48.270;9.996;2023-04-03T07:03:56;4.77;;;2.10;;
21301;SDS011;10810;48.270;9.996;2023-04-03T07:06:23;4.70;;;2.30;;
21301;SDS011;10810;48.270;9.996;2023-04-03T07:08:52;6.87;;;2.27;;
21301;SDS011;10810;48.270;9.996;2023-04-03T07:11:23;5.23;;;2.30;;
21301;SDS011;10810;48.270;9.996;2023-04-03T07:13:51;5.50;;;1.97;;
21301;SDS011;10810;48.270;9.996;2023-04-03T07:16:18;5.13;;;2.30;;
21301;SDS011;10810;48.270;9.996;2023-04-03T07:18:46;7.93;;;3.13;;
21301;SDS011;10810;48.270;9.996;2023-04-03T07:21:13;10.10;;;3.37;;
21301;SDS011;10810;48.270;9.996;2023-04-03T07:23:40;9.03;;;3.40;;
21301;SDS011;10810;48.270;9.996;2023-04-03T07:26:07;4.57;;;2.17;;
21301;SDS011;10810;48.270;9.996;2023-04-03T07:28:38;4.63;;;2.27;;
21301;SDS011;10810;48.270;9.996;2023-04-03T07:31:07;6.63;;;2.30;;
21301;SDS011;10810;48.270;9.996;2023-04-03T07:33:40;5.70;;;2.53;;
21301;SDS011;10810;48.270;9.996;2023-04-03T07:36:07;7.23;;;2.80;;
21301;SDS011;10810;48.270;9.996;2023-04-03T07:38:36;6.20;;;2.50;;
21301;SDS011;10810;48.270;9.996;2023-04-03T07:41:05;6.60;;;2.10;;
21301;SDS011;10810;48.270;9.996;2023-04-03T07:43:38;6.67;;;2.50;;
21301;SDS011;10810;48.270;9.996;2023-04-03T07:46:22;6.07;;;2.90;;
21301;SDS011;10810;48.270;9.996;2023-04-03T07:49:13;4.87;;;2.70;;
21301;SDS011;10810;48.270;9.996;2023-04-03T07:51:41;4.80;;;2.50;;
21301;SDS011;10810;48.270;9.996;2023-04-03T08:00:18;9.03;;;2.87;;
21301;SDS011;10810;48.270;9.996;2023-04-03T08:03:02;8.17;;;3.40;;
21301;SDS011;10810;48.270;9.996;2023-04-03T08:05:47;9.53;;;3.60;;
21301;SDS011;10810;48.270;9.996;2023-04-03T08:08:19;9.57;;;3.77;;
21301;SDS011;10810;48.270;9.996;2023-04-03T08:10:59;5.60;;;2.63;;
21301;SDS011;10810;48.270;9.996;2023-04-03T08:13:37;6.37;;;2.47;;
21301;SDS011;10810;48.270;9.996;2023-04-03T08:18:56;5.87;;;2.63;;
21301;SDS011;10810;48.270;9.996;2023-04-03T08:24:28;6.20;;;2.57;;
21301;SDS011;10810;48.270;9.996;2023-04-03T08:26:55;6.87;;;2.73;;
21301;SDS011;10810;48.270;9.996;2023-04-03T08:29:35;5.90;;;2.73;;
21301;SDS011;10810;48.270;9.996;2023-04-03T08:32:28;6.27;;;2.83;;
21301;SDS011;10810;48.270;9.996;2023-04-03T08:35:01;5.97;;;2.50;;
21301;SDS011;10810;48.270;9.996;2023-04-03T08:37:29;5.13;;;2.30;;
21301;SDS011;10810;48.270;9.996;2023-04-03T08:40:23;5.27;;;2.57;;
21301;SDS011;10810;48.270;9.996;2023-04-03T08:42:53;6.13;;;2.53;;
21301;SDS011;10810;48.270;9.996;2023-04-03T08:45:32;11.80;;;3.30;;
21301;SDS011;10810;48.270;9.996;2023-04-03T08:48:26;6.20;;;2.50;;
21301;SDS011;10810;48.270;9.996;2023-04-03T08:50:59;6.27;;;2.60;;
21301;SDS011;10810;48.270;9.996;2023-04-03T08:53:30;4.80;;;2.40;;
21301;SDS011;10810;48.270;9.996;2023-04-03T08:56:02;7.07;;;2.73;;
21301;SDS011;10810;48.270;9.996;2023-04-03T08:58:33;8.30;;;3.33;;
21301;SDS011;10810;48.270;9.996;2023-04-03T09:01:15;7.90;;;2.37;;
21301;SDS011;10810;48.270;9.996;2023-04-03T09:03:46;4.23;;;2.03;;
21301;SDS011;10810;48.270;9.996;2023-04-03T09:06:15;4.83;;;2.40;;
21301;SDS011;10810;48.270;9.996;2023-04-03T09:08:45;6.73;;;2.67;;
21301;SDS011;10810;48.270;9.996;2023-04-03T09:11:40;4.47;;;2.47;;
21301;SDS011;10810;48.270;9.996;2023-04-03T09:14:20;5.40;;;2.40;;
21301;SDS011;10810;48.270;9.996;2023-04-03T09:16:53;7.40;;;2.60;;
21301;SDS011;10810;48.270;9.996;2023-04-03T09:19:31;6.60;;;2.70;;
21301;SDS011;10810;48.270;9.996;2023-04-03T09:22:12;3.77;;;2.03;;
21301;SDS011;10810;48.270;9.996;2023-04-03T09:24:49;7.23;;;2.57;;
21301;SDS011;10810;48.270;9.996;2023-04-03T09:27:24;5.97;;;2.60;;
21301;SDS011;10810;48.270;9.996;2023-04-03T09:29:55;4.73;;;2.53;;
21301;SDS011;10810;48.270;9.996;2023-04-03T09:32:30;8.63;;;3.47;;
21301;SDS011;10810;48.270;9.996;2023-04-03T09:38:25;4.20;;;2.30;;
21301;SDS011;10810;48.270;9.996;2023-04-03T09:40:47;5.47;;;2.40;;
21301;SDS011;10810;48.270;9.996;2023-04-03T09:43:24;7.73;;;2.90;;
21301;SDS011;10810;48.270;9.996;2023-04-03T09:45:53;7.83;;;2.87;;
21301;SDS011;10810;48.270;9.996;2023-04-03T09:48:42;6.33;;;2.80;;
21301;SDS011;10810;48.270;9.996;2023-04-03T09:51:22;4.33;;;2.60;;
21301;SDS011;10810;48.270;9.996;2023-04-03T09:53:54;5.33;;;2.53;;
21301;SDS011;10810;48.270;9.996;2023-04-03T09:56:23;5.57;;;2.57;;
21301;SDS011;10810;48.270;9.996;2023-04-03T09:58:53;7.17;;;2.87;;
21301;SDS011;10810;48.270;9.996;2023-04-03T10:01:39;4.60;;;2.37;;
21301;SDS011;10810;48.270;9.996;2023-04-03T10:04:12;6.17;;;2.63;;
21301;SDS011;10810;48.270;9.996;2023-04-03T10:06:44;6.47;;;2.90;;
21301;SDS011;10810;48.270;9.996;2023-04-03T10:09:17;4.63;;;2.37;;
21301;SDS011;10810;48.270;9.996;2023-04-03T10:12:00;5.93;;;2.50;;
21301;SDS011;10810;48.270;9.996;2023-04-03T10:14:30;5.33;;;2.90;;
21301;SDS011;10810;48.270;9.996;2023-04-03T10:17:03;6.90;;;3.13;;
21301;SDS011;10810;48.270;9.996;2023-04-03T10:19:47;6.23;;;3.47;;
21301;SDS011;10810;48.270;9.996;2023-04-03T10:22:30;4.97;;;2.53;;
21301;SDS011;10810;48.270;9.996;2023-04-03T10:25:14;4.13;;;2.50;;
21301;SDS011;10810;48.270;9.996;2023-04-03T10:27:53;8.30;;;2.90;;
21301;SDS011;10810;48.270;9.996;2023-04-03T10:30:32;6.27;;;2.70;;
21301;SDS011;10810;48.270;9.996;2023-04-03T10:33:19;7.47;;;2.67;;
21301;SDS011;10810;48.270;9.996;2023-04-03T10:35:58;6.83;;;2.80;;
21301;SDS011;10810;48.270;9.996;2023-04-03T10:38:43;8.70;;;2.50;;
21301;SDS011;10810;48.270;9.996;2023-04-03T10:41:19;6.17;;;2.67;;
21301;SDS011;10810;48.270;9.996;2023-04-03T10:43:57;6.70;;;2.70;;
21301;SDS011;10810;48.270;9.996;2023-04-03T10:46:35;5.53;;;2.37;;
21301;SDS011;10810;48.270;9.996;2023-04-03T10:49:13;8.77;;;2.90;;
21301;SDS011;10810;48.270;9.996;2023-04-03T10:51:53;6.50;;;3.00;;
21301;SDS011;10810;48.270;9.996;2023-04-03T10:54:34;6.70;;;2.70;;
21301;SDS011;10810;48.270;9.996;2023-04-03T10:57:20;7.27;;;2.57;;
21301;SDS011;10810;48.270;9.996;2023-04-03T10:59:55;6.63;;;2.47;;
21301;SDS011;10810;48.270;9.996;2023-04-03T11:02:26;6.20;;;2.37;;
21301;SDS011;10810;48.270;9.996;2023-04-03T11:04:59;5.43;;;2.40;;
21301;SDS011;10810;48.270;9.996;2023-04-03T11:07:36;3.43;;;2.07;;
21301;SDS011;10810;48.270;9.996;2023-04-03T11:10:10;5.00;;;2.33;;
21301;SDS011;10810;48.270;9.996;2023-04-03T11:12:50;4.97;;;2.30;;
21301;SDS011;10810;48.270;9.996;2023-04-03T11:15:24;4.70;;;2.40;;
21301;SDS011;10810;48.270;9.996;2023-04-03T11:17:54;7.93;;;2.30;;
21301;SDS011;10810;48.270;9.996;2023-04-03T11:20:27;3.63;;;2.00;;
21301;SDS011;10810;48.270;9.996;2023-04-03T11:22:59;5.63;;;2.00;;
21301;SDS011;10810;48.270;9.996;2023-04-03T11:25:41;4.63;;;1.80;;
21301;SDS011;10810;48.270;9.996;2023-04-03T11:28:14;2.90;;;1.73;;
21301;SDS011;10810;48.270;9.996;2023-04-03T11:30:46;5.17;;;1.90;;
21301;SDS011;10810;48.270;9.996;2023-04-03T11:33:18;3.10;;;1.80;;
21301;SDS011;10810;48.270;9.996;2023-04-03T11:35:57;4.70;;;1.93;;
21301;SDS011;10810;48.270;9.996;2023-04-03T11:38:28;4.67;;;2.10;;
21301;SDS011;10810;48.270;9.996;2023-04-03T11:41:23;4.80;;;2.10;;
21301;SDS011;10810;48.270;9.996;2023-04-03T11:43:58;3.40;;;1.70;;
21301;SDS011;10810;48.270;9.996;2023-04-03T11:46:49;4.40;;;2.00;;
21301;SDS011;10810;48.270;9.996;2023-04-03T11:55:42;5.03;;;2.40;;
21301;SDS011;10810;48.270;9.996;2023-04-03T11:58:22;4.00;;;2.00;;
21301;SDS011;10810;48.270;9.996;2023-04-03T12:00:57;4.83;;;2.73;;
21301;SDS011;10810;48.270;9.996;2023-04-03T12:03:35;5.27;;;2.30;;
21301;SDS011;10810;48.270;9.996;2023-04-03T12:06:42;3.50;;;1.93;;
21301;SDS011;10810;48.270;9.996;2023-04-03T12:09:32;4.70;;;2.47;;
21301;SDS011;10810;48.270;9.996;2023-04-03T12:12:24;4.83;;;2.30;;
21301;SDS011;10810;48.270;9.996;2023-04-03T12:15:21;4.10;;;2.07;;
21301;SDS011;10810;48.270;9.996;2023-04-03T12:21:07;5.47;;;2.10;;
21301;SDS011;10810;48.270;9.996;2023-04-03T12:23:35;6.83;;;2.90;;
21301;SDS011;10810;48.270;9.996;2023-04-03T12:26:21;5.20;;;2.10;;
21301;SDS011;10810;48.270;9.996;2023-04-03T12:28:50;4.47;;;2.03;;
21301;SDS011;10810;48.270;9.996;2023-04-03T12:31:19;6.97;;;2.40;;
21301;SDS011;10810;48.270;9.996;2023-04-03T12:34:01;5.57;;;2.27;;
21301;SDS011;10810;48.270;9.996;2023-04-03T12:36:42;5.30;;;2.33;;
21301;SDS011;10810;48.270;9.996;2023-04-03T12:39:21;5.03;;;1.90;;
21301;SDS011;10810;48.270;9.996;2023-04-03T12:42:04;4.60;;;2.30;;
21301;SDS011;10810;48.270;9.996;2023-04-03T12:44:48;3.30;;;1.90;;
21301;SDS011;10810;48.270;9.996;2023-04-03T12:47:25;5.67;;;1.83;;
21301;SDS011;10810;48.270;9.996;2023-04-03T12:49:58;3.57;;;1.90;;
21301;SDS011;10810;48.270;9.996;2023-04-03T12:52:35;3.70;;;1.90;;
21301;SDS011;10810;48.270;9.996;2023-04-03T12:55:07;6.73;;;2.47;;
21301;SDS011;10810;48.270;9.996;2023-04-03T12:57:41;3.50;;;1.83;;
21301;SDS011;10810;48.270;9.996;2023-04-03T13:00:18;6.83;;;2.10;;
21301;SDS011;10810;48.270;9.996;2023-04-03T13:02:48;3.50;;;1.90;;
21301;SDS011;10810;48.270;9.996;2023-04-03T13:05:18;3.97;;;2.33;;
21301;SDS011;10810;48.270;9.996;2023-04-03T13:07:49;4.53;;;2.20;;
21301;SDS011;10810;48.270;9.996;2023-04-03T13:10:22;6.03;;;2.23;;
21301;SDS011;10810;48.270;9.996;2023-04-03T13:12:51;5.00;;;2.17;;
21301;SDS011;10810;48.270;9.996;2023-04-03T13:15:22;6.23;;;2.30;;
21301;SDS011;10810;48.270;9.996;2023-04-03T13:17:53;8.90;;;2.60;;
21301;SDS011;10810;48.270;9.996;2023-04-03T13:20:22;5.60;;;2.23;;
21301;SDS011;10810;48.270;9.996;2023-04-03T13:22:56;5.73;;;2.50;;
21301;SDS011;10810;48.270;9.996;2023-04-03T13:25:28;8.23;;;3.20;;
21301;SDS011;10810;48.270;9.996;2023-04-03T13:27:57;4.50;;;1.93;;
21301;SDS011;10810;48.270;9.996;2023-04-03T13:30:29;4.73;;;2.10;;
21301;SDS011;10810;48.270;9.996;2023-04-03T13:32:59;4.43;;;2.40;;
21301;SDS011;10810;48.270;9.996;2023-04-03T13:35:35;5.93;;;2.80;;
21301;SDS011;10810;48.270;9.996;2023-04-03T13:40:53;5.40;;;2.63;;
21301;SDS011;10810;48.270;9.996;2023-04-03T13:43:27;7.73;;;2.30;;
21301;SDS011;10810;48.270;9.996;2023-04-03T13:45:57;5.47;;;2.67;;
21301;SDS011;10810;48.270;9.996;2023-04-03T13:48:36;6.70;;;2.50;;
21301;SDS011;10810;48.270;9.996;2023-04-03T13:51:16;4.77;;;2.20;;
21301;SDS011;10810;48.270;9.996;2023-04-03T13:53:48;6.40;;;2.40;;
21301;SDS011;10810;48.270;9.996;2023-04-03T13:56:19;5.60;;;2.57;;
21301;SDS011;10810;48.270;9.996;2023-04-03T13:58:57;6.77;;;2.57;;
21301;SDS011;10810;48.270;9.996;2023-04-03T14:01:32;4.93;;;2.40;;
21301;SDS011;10810;48.270;9.996;2023-04-03T14:04:10;6.77;;;2.40;;
21301;SDS011;10810;48.270;9.996;2023-04-03T14:06:40;8.50;;;2.90;;
21301;SDS011;10810;48.270;9.996;2023-04-03T14:09:09;4.10;;;2.00;;
21301;SDS011;10810;48.270;9.996;2023-04-03T14:11:38;5.43;;;2.37;;
21301;SDS011;10810;48.270;9.996;2023-04-03T14:14:10;5.23;;;2.33;;
21301;SDS011;10810;48.270;9.996;2023-04-03T14:16:40;6.97;;;2.00;;
21301;SDS011;10810;48.270;9.996;2023-04-03T14:19:14;4.70;;;2.03;;
21301;SDS011;10810;48.270;9.996;2023-04-03T14:21:47;5.03;;;2.20;;
21301;SDS011;10810;48.270;9.996;2023-04-03T14:24:17;3.90;;;2.03;;
21301;SDS011;10810;48.270;9.996;2023-04-03T14:26:47;7.10;;;2.10;;
21301;SDS011;10810;48.270;9.996;2023-04-03T14:29:14;3.20;;;1.90;;
21301;SDS011;10810;48.270;9.996;2023-04-03T14:31:47;5.17;;;2.50;;
21301;SDS011;10810;48.270;9.996;2023-04-03T14:34:16;5.10;;;2.33;;
21301;SDS011;10810;48.270;9.996;2023-04-03T14:36:57;4.90;;;2.20;;
21301;SDS011;10810;48.270;9.996;2023-04-03T14:39:26;4.00;;;2.10;;
21301;SDS011;10810;48.270;9.996;2023-04-03T14:41:54;3.70;;;2.00;;
21301;SDS011;10810;48.270;9.996;2023-04-03T14:44:25;3.73;;;1.80;;
21301;SDS011;10810;48.270;9.996;2023-04-03T14:46:52;4.23;;;1.87;;
21301;SDS011;10810;48.270;9.996;2023-04-03T14:49:24;4.57;;;2.00;;
21301;SDS011;10810;48.270;9.996;2023-04-03T14:52:06;6.77;;;2.80;;
21301;SDS011;10810;48.270;9.996;2023-04-03T14:54:43;4.87;;;2.40;;
21301;SDS011;10810;48.270;9.996;2023-04-03T14:57:12;8.20;;;3.13;;
21301;SDS011;10810;48.270;9.996;2023-04-03T14:59:41;7.57;;;2.37;;
21301;SDS011;10810;48.270;9.996;2023-04-03T15:02:11;5.90;;;1.87;;
21301;SDS011;10810;48.270;9.996;2023-04-03T15:04:51;4.23;;;2.10;;
21301;SDS011;10810;48.270;9.996;2023-04-03T15:07:18;4.90;;;1.80;;
21301;SDS011;10810;48.270;9.996;2023-04-03T15:09:47;4.07;;;2.10;;
21301;SDS011;10810;48.270;9.996;2023-04-03T15:12:14;3.33;;;1.70;;
21301;SDS011;10810;48.270;9.996;2023-04-03T15:14:41;3.57;;;1.90;;
21301;SDS011;10810;48.270;9.996;2023-04-03T15:17:08;5.43;;;2.30;;
21301;SDS011;10810;48.270;9.996;2023-04-03T15:19:41;4.03;;;1.90;;
21301;SDS011;10810;48.270;9.996;2023-04-03T15:22:11;6.47;;;2.20;;
21301;SDS011;10810;48.270;9.996;2023-04-03T15:24:42;4.83;;;2.10;;
21301;SDS011;10810;48.270;9.996;2023-04-03T15:27:11;5.63;;;1.97;;
21301;SDS011;10810;48.270;9.996;2023-04-03T15:29:40;4.73;;;2.00;;
21301;SDS011;10810;48.270;9.996;2023-04-03T15:32:18;7.63;;;2.27;;
21301;SDS011;10810;48.270;9.996;2023-04-03T15:34:53;4.67;;;1.90;;
21301;SDS011;10810;48.270;9.996;2023-04-03T15:37:27;7.30;;;2.10;;
21301;SDS011;10810;48.270;9.996;2023-04-03T15:39:54;4.43;;;1.80;;
21301;SDS011;10810;48.270;9.996;2023-04-03T15:42:24;5.23;;;1.80;;
21301;SDS011;10810;48.270;9.996;2023-04-03T15:44:52;3.93;;;1.60;;